createdAt,value
2023-02-15T00:01:33.441Z,36.72
2023-02-15T00:04:01.966Z,37.35
2023-02-15T00:06:30.774Z,39.25
2023-02-15T00:08:59.526Z,39.97
2023-02-15T00:11:50.638Z,35.67
2023-02-15T00:14:21.240Z,39.72
2023-02-15T00:16:52.104Z,41.15
2023-02-15T00:19:22.773Z,44.13
2023-02-15T00:21:51.399Z,36.10
2023-02-15T00:24:20.946Z,38.03
2023-02-15T00:26:50.073Z,37.55
2023-02-15T00:29:20.357Z,34.67
2023-02-15T00:31:49.188Z,42.00
2023-02-15T00:34:21.406Z,36.05
2023-02-15T00:36:50.437Z,33.40
2023-02-15T00:39:19.562Z,36.97
2023-02-15T00:41:48.349Z,34.58
2023-02-15T00:44:17.307Z,33.17
2023-02-15T00:46:45.720Z,39.67
2023-02-15T00:49:14.318Z,41.28
2023-02-15T00:51:44.212Z,38.38
2023-02-15T00:54:12.650Z,34.13
2023-02-15T00:56:41.080Z,36.42
2023-02-15T00:59:10.502Z,32.08
2023-02-15T01:01:39.200Z,33.30
2023-02-15T01:04:07.660Z,32.75
2023-02-15T01:06:36.072Z,33.30
2023-02-15T01:09:05.882Z,35.67
2023-02-15T01:11:34.293Z,35.47
2023-02-15T01:14:04.160Z,34.60
2023-02-15T01:16:33.005Z,32.67
2023-02-15T01:19:03.517Z,35.50
2023-02-15T01:21:35.175Z,32.53
2023-02-15T01:24:05.574Z,32.42
2023-02-15T01:26:33.959Z,34.90
2023-02-15T01:29:02.376Z,35.58
2023-02-15T01:31:30.937Z,32.85
2023-02-15T01:33:59.379Z,38.63
2023-02-15T01:36:27.993Z,33.30
2023-02-15T01:38:56.410Z,35.50
2023-02-15T01:41:27.519Z,29.77
2023-02-15T01:43:58.137Z,37.22
2023-02-15T01:46:32.506Z,38.50
2023-02-15T01:49:05.181Z,36.03
2023-02-15T01:51:36.758Z,39.08
2023-02-15T01:54:13.443Z,37.95
2023-02-15T01:56:44.073Z,39.80
2023-02-15T01:59:20.805Z,37.97
2023-02-15T02:01:50.664Z,34.33
2023-02-15T02:04:25.079Z,38.30
2023-02-15T02:06:55.284Z,34.28
2023-02-15T02:09:23.764Z,38.83
2023-02-15T02:11:55.027Z,37.88
2023-02-15T02:14:25.143Z,39.63
2023-02-15T02:16:58.845Z,36.85
2023-02-15T02:19:59.082Z,38.58
2023-02-15T02:22:55.819Z,31.27
2023-02-15T02:25:46.698Z,37.63
2023-02-15T02:28:34.584Z,37.15
2023-02-15T02:31:27.334Z,38.92
2023-02-15T02:34:07.547Z,37.85
2023-02-15T02:36:44.209Z,35.75
2023-02-15T02:39:23.822Z,40.95
2023-02-15T02:42:01.237Z,41.15
2023-02-15T02:44:36.794Z,35.58
2023-02-15T02:47:12.681Z,41.38
2023-02-15T02:49:44.681Z,38.90
2023-02-15T02:52:38.051Z,39.60
2023-02-15T02:55:11.548Z,40.00
2023-02-15T02:57:45.959Z,42.60
2023-02-15T03:00:16.980Z,36.00
2023-02-15T03:02:49.830Z,40.35
2023-02-15T03:05:26.209Z,40.35
2023-02-15T03:07:57.846Z,37.95
2023-02-15T03:10:27.060Z,36.88
2023-02-15T03:12:55.703Z,48.15
2023-02-15T03:15:50.410Z,40.67
2023-02-15T03:18:22.164Z,44.97
2023-02-15T03:20:53.303Z,43.45
2023-02-15T03:23:25.035Z,39.20
2023-02-15T03:25:58.232Z,40.40
2023-02-15T03:28:32.995Z,40.50
2023-02-15T03:31:05.784Z,39.22
2023-02-15T03:33:37.750Z,41.13
2023-02-15T03:36:13.770Z,37.00
2023-02-15T03:38:50.122Z,39.25
2023-02-15T03:41:21.823Z,36.90
2023-02-15T03:43:55.251Z,42.30
2023-02-15T03:46:30.391Z,42.13
2023-02-15T03:49:04.787Z,40.47
2023-02-15T03:51:38.841Z,40.75
2023-02-15T03:54:11.290Z,41.83
2023-02-15T03:56:42.471Z,44.40
2023-02-15T03:59:28.614Z,41.70
2023-02-15T04:02:08.569Z,46.03
2023-02-15T04:04:39.131Z,48.03
2023-02-15T04:07:10.193Z,45.28
2023-02-15T04:09:58.904Z,46.13
2023-02-15T04:12:27.548Z,37.75
2023-02-15T04:15:13.407Z,40.30
2023-02-15T04:17:41.949Z,40.40
2023-02-15T04:20:28.652Z,39.55
2023-02-15T04:23:16.345Z,45.33
2023-02-15T04:25:44.923Z,46.60
2023-02-15T04:28:13.434Z,47.10
2023-02-15T04:30:41.818Z,48.38
2023-02-15T04:33:10.372Z,46.97
2023-02-15T04:35:38.770Z,45.78
2023-02-15T04:38:08.560Z,43.58
2023-02-15T04:40:36.921Z,44.15
2023-02-15T04:43:05.251Z,46.63
2023-02-15T04:45:33.855Z,43.40
2023-02-15T04:48:02.223Z,47.53
2023-02-15T04:50:30.631Z,44.83
2023-02-15T04:52:59.089Z,49.88
2023-02-15T04:55:28.840Z,51.88
2023-02-15T04:57:57.605Z,46.05
2023-02-15T05:00:26.059Z,48.47
2023-02-15T05:02:54.417Z,46.40
2023-02-15T05:05:23.049Z,46.72
2023-02-15T05:07:51.411Z,46.58
2023-02-15T05:10:20.176Z,39.55
2023-02-15T05:12:50.083Z,48.15
2023-02-15T05:15:18.457Z,44.25
2023-02-15T05:17:46.935Z,50.55
2023-02-15T05:20:15.389Z,48.15
2023-02-15T05:22:43.923Z,45.42
2023-02-15T05:25:30.041Z,47.53
2023-02-15T05:28:17.529Z,41.40
2023-02-15T05:30:46.315Z,49.28
2023-02-15T05:33:14.815Z,46.08
2023-02-15T05:35:43.632Z,49.42
2023-02-15T05:38:12.018Z,47.13
2023-02-15T05:40:40.365Z,46.50
2023-02-15T05:43:10.218Z,51.85
2023-02-15T05:45:38.565Z,45.03
2023-02-15T05:48:06.992Z,48.53
2023-02-15T05:50:35.490Z,49.58
2023-02-15T05:53:04.713Z,53.53
2023-02-15T05:55:33.530Z,52.33
2023-02-15T05:58:01.913Z,47.28
2023-02-15T06:00:31.764Z,45.38
2023-02-15T06:03:00.114Z,47.55
2023-02-15T06:05:28.508Z,52.72
2023-02-15T06:07:57.049Z,49.00
2023-02-15T06:10:25.514Z,47.08
2023-02-15T06:12:54.421Z,48.22
2023-02-15T06:15:22.819Z,53.47
2023-02-15T06:17:52.662Z,49.92
2023-02-15T06:20:21.343Z,49.80
2023-02-15T06:22:50.073Z,50.88
2023-02-15T06:25:18.785Z,49.30
2023-02-15T06:27:47.220Z,46.15
2023-02-15T06:30:16.174Z,51.30
2023-02-15T06:32:44.955Z,49.53
2023-02-15T06:35:15.076Z,48.30
2023-02-15T06:37:43.610Z,54.58
2023-02-15T06:40:12.589Z,51.35
2023-02-15T06:42:41.144Z,52.30
2023-02-15T06:45:11.238Z,50.83
2023-02-15T06:47:39.803Z,54.50
2023-02-15T06:50:09.266Z,61.25
2023-02-15T06:52:39.218Z,64.53
2023-02-15T06:55:08.399Z,56.90
2023-02-15T06:57:37.440Z,53.83
2023-02-15T07:00:06.996Z,61.95
2023-02-15T07:02:35.549Z,58.53
2023-02-15T07:05:06.002Z,57.85
2023-02-15T07:07:34.626Z,51.00
2023-02-15T07:10:05.366Z,52.17
2023-02-15T07:12:46.613Z,53.80
2023-02-15T07:15:17.102Z,51.40
2023-02-15T07:17:46.657Z,56.85
2023-02-15T07:20:18.012Z,56.80
2023-02-15T07:22:52.116Z,48.42
2023-02-15T07:25:22.335Z,45.08
2023-02-15T07:27:57.017Z,41.60
2023-02-15T07:30:26.267Z,41.45
2023-02-15T07:33:14.710Z,35.15
2023-02-15T07:35:49.560Z,33.92
2023-02-15T07:38:18.651Z,33.90
2023-02-15T07:40:49.030Z,34.47
2023-02-15T07:43:17.665Z,33.85
2023-02-15T07:45:46.248Z,33.33
2023-02-15T07:48:14.930Z,29.63
2023-02-15T07:50:43.793Z,29.77
2023-02-15T07:53:12.550Z,30.50
2023-02-15T07:55:41.225Z,44.90
2023-02-15T07:58:11.123Z,42.25
2023-02-15T08:00:53.985Z,34.75
2023-02-15T08:03:27.792Z,35.55
2023-02-15T08:05:59.354Z,37.90
2023-02-15T08:08:31.931Z,43.35
2023-02-15T08:11:19.704Z,32.42
2023-02-15T08:14:00.171Z,33.05
2023-02-15T08:16:31.668Z,40.97
2023-02-15T08:19:03.405Z,35.13
2023-02-15T08:21:32.959Z,34.58
2023-02-15T08:24:01.567Z,31.92
2023-02-15T08:26:31.508Z,34.38
2023-02-15T08:29:01.986Z,32.78
2023-02-15T08:31:31.489Z,39.08
2023-02-15T08:34:00.277Z,28.75
2023-02-15T08:36:30.643Z,38.17
2023-02-15T08:39:00.312Z,37.88
2023-02-15T08:41:31.352Z,31.77
2023-02-15T08:44:03.470Z,33.88
2023-02-15T08:46:33.913Z,32.92
2023-02-15T08:49:03.079Z,34.08
2023-02-15T08:51:33.527Z,36.83
2023-02-15T08:54:03.620Z,37.13
2023-02-15T08:56:35.351Z,30.33
2023-02-15T08:59:06.402Z,31.75
2023-02-15T09:01:36.669Z,35.65
2023-02-15T09:04:09.643Z,31.08
2023-02-15T09:06:39.072Z,32.45
2023-02-15T09:09:09.016Z,31.23
2023-02-15T09:11:39.061Z,31.42
2023-02-15T09:14:14.368Z,28.17
2023-02-15T09:16:45.775Z,38.25
2023-02-15T09:19:14.793Z,32.53
2023-02-15T09:21:43.983Z,28.55
2023-02-15T09:24:16.333Z,33.53
2023-02-15T09:26:47.217Z,36.50
2023-02-15T09:29:18.604Z,32.40
2023-02-15T09:31:49.756Z,31.00
2023-02-15T09:34:21.803Z,31.13
2023-02-15T09:36:52.873Z,30.63
2023-02-15T09:39:24.703Z,29.73
2023-02-15T09:42:26.798Z,36.05
2023-02-15T09:45:23.832Z,30.23
2023-02-15T09:48:28.724Z,36.25
2023-02-15T09:51:09.808Z,31.00
2023-02-15T09:53:57.722Z,34.25
2023-02-15T09:56:32.906Z,31.08
2023-02-15T09:59:12.561Z,38.00
2023-02-15T10:01:56.480Z,35.17
2023-02-15T10:04:45.426Z,31.42
2023-02-15T10:07:26.527Z,32.28
2023-02-15T10:10:08.829Z,30.13
2023-02-15T10:12:59.550Z,39.83
2023-02-15T10:15:39.850Z,34.75
2023-02-15T10:18:25.430Z,32.08
2023-02-15T10:21:03.669Z,30.17
2023-02-15T10:23:44.796Z,32.40
2023-02-15T10:26:19.574Z,32.20
2023-02-15T10:28:51.635Z,30.00
2023-02-15T10:31:27.853Z,28.38
2023-02-15T10:34:16.842Z,28.13
2023-02-15T10:37:13.430Z,26.40
2023-02-15T10:39:59.788Z,29.98
2023-02-15T10:42:38.961Z,31.10
2023-02-15T10:45:21.321Z,28.45
2023-02-15T10:48:15.172Z,33.30
2023-02-15T10:50:51.444Z,29.38
2023-02-15T10:53:38.367Z,30.58
2023-02-15T10:56:16.369Z,27.48
2023-02-15T10:58:59.995Z,32.53
2023-02-15T11:01:37.098Z,29.88
2023-02-15T11:04:25.001Z,33.50
2023-02-15T11:06:58.690Z,26.77
2023-02-15T11:09:37.399Z,28.83
2023-02-15T11:12:14.444Z,29.05
2023-02-15T11:14:48.936Z,29.20
2023-02-15T11:17:21.623Z,39.65
2023-02-15T11:19:59.029Z,28.70
2023-02-15T11:22:30.090Z,27.40
2023-02-15T11:25:02.668Z,28.30
2023-02-15T11:27:34.822Z,24.17
2023-02-15T11:30:10.325Z,29.48
2023-02-15T11:32:42.128Z,30.92
2023-02-15T11:35:23.417Z,29.83
2023-02-15T11:38:00.686Z,28.83
2023-02-15T11:40:32.273Z,26.83
2023-02-15T11:43:06.181Z,26.65
2023-02-15T11:45:36.364Z,26.83
2023-02-15T11:48:13.007Z,29.70
2023-02-15T11:50:43.673Z,26.20
2023-02-15T11:53:16.664Z,28.42
2023-02-15T11:55:46.592Z,26.70
2023-02-15T11:58:35.146Z,28.08
2023-02-15T12:01:10.612Z,27.25
2023-02-15T12:03:47.961Z,25.90
2023-02-15T12:06:24.132Z,25.17
2023-02-15T12:09:07.204Z,25.05
2023-02-15T12:11:38.103Z,31.80
2023-02-15T12:14:09.958Z,36.40
2023-02-15T12:16:44.745Z,28.00
2023-02-15T12:19:27.344Z,25.30
2023-02-15T12:21:56.630Z,24.92
2023-02-15T12:24:29.504Z,26.58
2023-02-15T12:27:01.573Z,24.30
2023-02-15T12:29:35.204Z,27.63
2023-02-15T12:32:05.750Z,28.85
2023-02-15T12:34:40.470Z,25.42
2023-02-15T12:37:16.908Z,24.30
2023-02-15T12:39:58.199Z,25.38
2023-02-15T12:42:28.274Z,28.88
2023-02-15T12:45:00.140Z,28.33
2023-02-15T12:47:31.067Z,22.88
2023-02-15T12:50:17.948Z,19.98
2023-02-15T12:52:49.485Z,20.65
2023-02-15T12:55:24.988Z,21.35
2023-02-15T12:58:08.563Z,21.30
2023-02-15T13:00:37.816Z,17.27
2023-02-15T13:03:06.393Z,25.77
2023-02-15T13:05:39.460Z,20.88
2023-02-15T13:08:14.386Z,23.38
2023-02-15T13:10:56.116Z,23.63
2023-02-15T13:13:27.640Z,21.67
2023-02-15T13:16:00.447Z,21.65
2023-02-15T13:18:33.903Z,20.13
2023-02-15T13:21:10.620Z,20.02
2023-02-15T13:23:41.782Z,17.60
2023-02-15T13:26:17.896Z,19.35
2023-02-15T13:28:49.281Z,23.75
2023-02-15T13:31:21.305Z,21.90
2023-02-15T13:33:54.088Z,19.75
2023-02-15T13:36:29.346Z,20.45
2023-02-15T13:39:09.582Z,22.05
2023-02-15T13:41:50.372Z,20.17
2023-02-15T13:44:27.968Z,20.92
2023-02-15T13:47:14.147Z,22.67
2023-02-15T13:49:55.475Z,24.77
2023-02-15T13:52:26.012Z,20.23
2023-02-15T13:55:15.499Z,25.35
2023-02-15T13:58:03.414Z,27.73
2023-02-15T14:00:45.124Z,21.92
2023-02-15T14:03:32.976Z,22.30
2023-02-15T14:06:19.565Z,25.58
2023-02-15T14:09:05.273Z,25.50
2023-02-15T14:11:43.448Z,21.58
2023-02-15T14:14:35.173Z,23.50
2023-02-15T14:17:11.628Z,26.95
2023-02-15T14:19:47.000Z,24.15
2023-02-15T14:22:23.284Z,25.60
2023-02-15T14:25:16.185Z,24.10
2023-02-15T14:27:55.063Z,25.92
2023-02-15T14:30:29.237Z,25.63
2023-02-15T14:33:02.353Z,25.33
2023-02-15T14:35:32.441Z,22.33
2023-02-15T14:38:07.108Z,23.45
2023-02-15T14:41:00.463Z,25.02
2023-02-15T14:43:40.997Z,23.80
2023-02-15T14:46:18.368Z,25.73
2023-02-15T14:48:50.140Z,22.75
2023-02-15T14:51:57.745Z,28.80
2023-02-15T14:54:58.850Z,25.55
2023-02-15T14:57:36.423Z,34.72
2023-02-15T15:00:32.403Z,28.63
2023-02-15T15:03:02.816Z,23.88
2023-02-15T15:05:35.929Z,26.15
2023-02-15T15:08:06.478Z,29.38
2023-02-15T15:10:44.511Z,30.75
2023-02-15T15:13:50.399Z,24.40
2023-02-15T15:16:33.172Z,25.15
2023-02-15T15:19:04.242Z,27.23
2023-02-15T15:21:58.473Z,26.90
2023-02-15T15:24:53.147Z,22.73
2023-02-15T15:27:43.826Z,23.65
2023-02-15T15:31:04.154Z,22.15
2023-02-15T15:34:11.874Z,32.93
2023-02-15T15:37:22.831Z,24.42
2023-02-15T15:40:39.667Z,35.38
2023-02-15T15:44:02.422Z,22.70
2023-02-15T15:46:49.087Z,27.08
2023-02-15T15:49:20.991Z,23.98
2023-02-15T15:51:51.154Z,24.80
2023-02-15T15:54:21.781Z,21.50
2023-02-15T15:56:55.161Z,24.52
2023-02-15T15:59:26.860Z,30.92
2023-02-15T16:01:56.040Z,21.85
2023-02-15T16:04:27.387Z,24.67
2023-02-15T16:06:55.983Z,28.17
2023-02-15T16:09:26.607Z,30.75
2023-02-15T16:12:01.241Z,26.92
2023-02-15T16:14:33.777Z,24.15
2023-02-15T16:17:04.074Z,24.08
2023-02-15T16:19:36.054Z,25.02
2023-02-15T16:22:08.585Z,31.52
2023-02-15T16:24:53.371Z,30.35
2023-02-15T16:27:35.318Z,28.48
2023-02-15T16:30:24.234Z,38.63
2023-02-15T16:32:55.471Z,25.70
2023-02-15T16:35:25.177Z,28.33
2023-02-15T16:37:53.524Z,28.13
2023-02-15T16:40:45.228Z,30.50
2023-02-15T16:43:20.152Z,32.25
2023-02-15T16:45:49.072Z,27.73
2023-02-15T16:48:22.883Z,24.10
2023-02-15T16:50:55.105Z,33.03
2023-02-15T16:53:26.657Z,28.75
2023-02-15T16:55:57.302Z,30.02
2023-02-15T16:58:31.796Z,35.58
2023-02-15T17:01:03.681Z,25.52
2023-02-15T17:03:32.595Z,26.45
2023-02-15T17:06:03.728Z,32.10
2023-02-15T17:08:33.673Z,30.30
2023-02-15T17:11:17.980Z,27.38
2023-02-15T17:14:23.020Z,27.40
2023-02-15T17:16:54.659Z,24.83
2023-02-15T17:19:25.685Z,31.27
2023-02-15T17:21:56.857Z,25.90
2023-02-15T17:24:35.277Z,26.50
2023-02-15T17:27:09.327Z,27.13
2023-02-15T17:29:42.164Z,27.25
2023-02-15T17:32:19.851Z,32.90
2023-02-15T17:35:04.163Z,34.58
2023-02-15T17:37:44.344Z,32.55
2023-02-15T17:40:21.614Z,32.13
2023-02-15T17:42:50.374Z,32.65
2023-02-15T17:45:21.140Z,28.63
2023-02-15T17:47:50.849Z,24.92
2023-02-15T17:50:23.322Z,27.40
2023-02-15T17:52:53.878Z,30.23
2023-02-15T17:55:38.816Z,26.08
2023-02-15T17:58:10.100Z,27.67
2023-02-15T18:01:00.365Z,26.73
2023-02-15T18:03:59.086Z,27.90
2023-02-15T18:06:45.786Z,26.83
2023-02-15T18:09:34.002Z,30.55
2023-02-15T18:12:02.975Z,28.00
2023-02-15T18:14:31.643Z,27.05
2023-02-15T18:17:01.350Z,24.65
2023-02-15T18:19:29.771Z,31.45
2023-02-15T18:21:58.180Z,28.38
2023-02-15T18:24:27.725Z,29.90
2023-02-15T18:26:58.105Z,27.75
2023-02-15T18:29:26.466Z,23.50
2023-02-15T18:31:57.843Z,30.10
2023-02-15T18:34:30.733Z,28.65
2023-02-15T18:37:02.443Z,27.80
2023-02-15T18:39:39.971Z,29.33
2023-02-15T18:42:20.397Z,28.13
2023-02-15T18:44:49.087Z,31.20
2023-02-15T18:47:17.544Z,32.45
2023-02-15T18:49:47.357Z,26.08
2023-02-15T18:52:17.926Z,32.85
2023-02-15T18:54:47.019Z,31.02
2023-02-15T18:57:17.097Z,27.15
2023-02-15T18:59:45.483Z,29.38
2023-02-15T19:02:14.689Z,28.65
2023-02-15T19:04:43.093Z,33.45
2023-02-15T19:07:18.748Z,27.67
2023-02-15T19:09:53.222Z,28.20
2023-02-15T19:12:21.771Z,32.53
2023-02-15T19:14:51.820Z,26.17
2023-02-15T19:17:22.721Z,28.05
2023-02-15T19:19:52.715Z,27.02
2023-02-15T19:22:26.792Z,30.85
2023-02-15T19:24:58.113Z,25.48
2023-02-15T19:27:29.872Z,28.00
2023-02-15T19:30:00.651Z,23.52
2023-02-15T19:32:30.522Z,26.60
2023-02-15T19:34:58.970Z,39.55
2023-02-15T19:37:37.198Z,40.25
2023-02-15T19:40:08.935Z,26.90
2023-02-15T19:42:37.253Z,29.27
2023-02-15T19:45:14.598Z,31.27
2023-02-15T19:47:43.596Z,31.52
2023-02-15T19:50:16.482Z,32.15
2023-02-15T19:52:47.416Z,33.88
2023-02-15T19:55:24.208Z,26.80
2023-02-15T19:57:55.337Z,27.77
2023-02-15T20:00:27.054Z,27.40
2023-02-15T20:02:56.735Z,27.77
2023-02-15T20:05:27.431Z,28.98
2023-02-15T20:07:58.275Z,28.00
2023-02-15T20:10:30.059Z,31.17
2023-02-15T20:12:59.452Z,32.33
2023-02-15T20:15:29.531Z,41.78
2023-02-15T20:17:59.593Z,28.92
2023-02-15T20:20:33.150Z,23.25
2023-02-15T20:23:03.272Z,29.48
2023-02-15T20:25:34.148Z,33.72
2023-02-15T20:28:02.969Z,27.13
2023-02-15T20:30:32.960Z,28.95
2023-02-15T20:33:01.395Z,27.08
2023-02-15T20:35:30.250Z,30.48
2023-02-15T20:38:01.250Z,25.88
2023-02-15T20:40:33.432Z,26.77
2023-02-15T20:43:02.585Z,31.15
2023-02-15T20:45:33.721Z,33.60
2023-02-15T20:48:02.551Z,31.00
2023-02-15T20:50:33.308Z,27.55
2023-02-15T20:53:03.149Z,33.72
2023-02-15T20:55:33.415Z,32.40
2023-02-15T20:58:01.954Z,32.72
2023-02-15T21:00:35.287Z,31.38
2023-02-15T21:03:11.546Z,32.53
2023-02-15T21:05:40.622Z,34.30
2023-02-15T21:08:14.116Z,32.10
2023-02-15T21:10:45.570Z,35.22
2023-02-15T21:13:21.356Z,30.40
2023-02-15T21:15:51.045Z,27.83
2023-02-15T21:18:22.681Z,28.27
2023-02-15T21:20:53.841Z,31.00
2023-02-15T21:23:25.861Z,29.55
2023-02-15T21:25:57.241Z,31.60
2023-02-15T21:28:27.891Z,38.65
2023-02-15T21:30:58.527Z,28.33
2023-02-15T21:33:27.589Z,31.80
2023-02-15T21:35:58.206Z,32.85
2023-02-15T21:38:30.285Z,35.80
2023-02-15T21:41:20.288Z,27.63
2023-02-15T21:44:06.918Z,33.13
2023-02-15T21:46:53.114Z,30.73
2023-02-15T21:49:21.852Z,30.58
2023-02-15T21:52:09.625Z,35.03
2023-02-15T21:54:39.952Z,38.03
2023-02-15T21:57:15.146Z,31.45
2023-02-15T21:59:43.995Z,33.08
2023-02-15T22:02:36.163Z,33.00
2023-02-15T22:05:16.358Z,37.65
2023-02-15T22:08:03.172Z,32.13
2023-02-15T22:10:42.079Z,33.25
2023-02-15T22:13:18.543Z,30.50
2023-02-15T22:15:52.982Z,38.00
2023-02-15T22:18:26.303Z,35.67
2023-02-15T22:21:01.079Z,36.30
2023-02-15T22:23:56.929Z,37.45
2023-02-15T22:26:26.374Z,39.67
2023-02-15T22:29:02.226Z,37.08
2023-02-15T22:31:31.311Z,39.33
2023-02-15T22:34:05.591Z,42.70
2023-02-15T22:36:40.096Z,34.00
2023-02-15T22:39:08.646Z,41.47
2023-02-15T22:41:37.095Z,39.83
2023-02-15T22:44:07.050Z,38.60
2023-02-15T22:46:35.800Z,33.22
2023-02-15T22:49:04.412Z,41.72
2023-02-15T22:51:32.791Z,36.53
2023-02-15T22:54:01.364Z,39.05
2023-02-15T22:56:37.951Z,37.20
2023-02-15T22:59:14.981Z,38.30
2023-02-15T23:01:43.690Z,40.03
2023-02-15T23:04:18.416Z,35.65
2023-02-15T23:06:47.432Z,32.97
2023-02-15T23:09:16.277Z,30.95
2023-02-15T23:11:45.825Z,34.63
2023-02-15T23:14:27.209Z,37.78
2023-02-15T23:16:56.035Z,39.83
2023-02-15T23:19:24.447Z,38.00
2023-02-15T23:21:53.349Z,36.10
2023-02-15T23:24:23.882Z,41.55
2023-02-15T23:26:52.640Z,42.15
2023-02-15T23:29:24.326Z,40.08
2023-02-15T23:31:54.529Z,37.00
2023-02-15T23:34:27.556Z,40.92
2023-02-15T23:36:56.582Z,34.30
2023-02-15T23:39:44.799Z,39.03
2023-02-15T23:42:16.653Z,37.22
2023-02-15T23:44:47.777Z,42.50
2023-02-15T23:47:41.652Z,41.08
2023-02-15T23:50:17.704Z,41.13
2023-02-15T23:52:46.556Z,33.55
2023-02-15T23:55:15.848Z,38.90
2023-02-15T23:57:45.341Z,34.63
